sensor_id;sensor_type;location;lat;lon;timestamp;pressure;altitude;pressure_sealevel;temperature;humidity
4576;BME280;2300;51.874;8.430;2023-02-19T00:00:54;100719.66;;;9.24;100.00
4576;BME280;2300;51.874;8.430;2023-02-19T00:03:21;100723.38;;;9.36;100.00
4576;BME280;2300;51.874;8.430;2023-02-19T00:05:47;100718.31;;;9.33;100.00
4576;BME280;2300;51.874;8.430;2023-02-19T00:08:13;100727.78;;;9.37;100.00
4576;BME280;2300;51.874;8.430;2023-02-19T00:10:40;100720.34;;;9.44;100.00
4576;BME280;2300;51.874;8.430;2023-02-19T00:13:06;100723.88;;;9.51;100.00
4576;BME280;2300;51.874;8.430;2023-02-19T00:15:33;100734.16;;;9.56;100.00
4576;BME280;2300;51.874;8.430;2023-02-19T00:18:01;100728.63;;;9.63;100.00
4576;BME280;2300;51.874;8.430;2023-02-19T00:20:27;100727.22;;;9.53;100.00
4576;BME280;2300;51.874;8.430;2023-02-19T00:22:54;100721.91;;;9.58;100.00
4576;BME280;2300;51.874;8.430;2023-02-19T00:25:20;100722.72;;;9.59;100.00
4576;BME280;2300;51.874;8.430;2023-02-19T00:27:47;100721.75;;;9.53;100.00
4576;BME280;2300;51.874;8.430;2023-02-19T00:30:13;100710.16;;;9.51;100.00
4576;BME280;2300;51.874;8.430;2023-02-19T00:32:40;100711.50;;;9.42;100.00
4576;BME280;2300;51.874;8.430;2023-02-19T00:35:07;100716.69;;;9.50;100.00
4576;BME280;2300;51.874;8.430;2023-02-19T00:37:34;100716.44;;;9.58;100.00
4576;BME280;2300;51.874;8.430;2023-02-19T00:40:00;100714.34;;;9.54;100.00
4576;BME280;2300;51.874;8.430;2023-02-19T00:42:27;100697.84;;;9.61;100.00
4576;BME280;2300;51.874;8.430;2023-02-19T00:44:53;100695.50;;;9.39;100.00
4576;BME280;2300;51.874;8.430;2023-02-19T00:47:19;100690.88;;;9.40;100.00
4576;BME280;2300;51.874;8.430;2023-02-19T00:49:48;100691.25;;;9.43;100.00
4576;BME280;2300;51.874;8.430;2023-02-19T00:52:16;100686.22;;;9.40;100.00
4576;BME280;2300;51.874;8.430;2023-02-19T00:54:42;100693.59;;;9.40;100.00
4576;BME280;2300;51.874;8.430;2023-02-19T00:57:08;100693.97;;;9.43;100.00
4576;BME280;2300;51.874;8.430;2023-02-19T00:59:35;100692.03;;;9.50;100.00
4576;BME280;2300;51.874;8.430;2023-02-19T01:02:02;100682.41;;;9.41;100.00
4576;BME280;2300;51.874;8.430;2023-02-19T01:04:28;100699.72;;;9.42;100.00
4576;BME280;2300;51.874;8.430;2023-02-19T01:06:55;100696.72;;;9.43;100.00
4576;BME280;2300;51.874;8.430;2023-02-19T01:09:22;100685.38;;;9.40;100.00
4576;BME280;2300;51.874;8.430;2023-02-19T01:11:49;100689.97;;;9.46;100.00
4576;BME280;2300;51.874;8.430;2023-02-19T01:14:15;100692.91;;;9.44;100.00
4576;BME280;2300;51.874;8.430;2023-02-19T01:16:42;100694.16;;;9.48;100.00
4576;BME280;2300;51.874;8.430;2023-02-19T01:19:08;100697.50;;;9.50;100.00
4576;BME280;2300;51.874;8.430;2023-02-19T01:21:35;100680.28;;;9.43;100.00
4576;BME280;2300;51.874;8.430;2023-02-19T01:24:02;100694.09;;;9.55;100.00
4576;BME280;2300;51.874;8.430;2023-02-19T01:26:31;100698.47;;;9.63;100.00
4576;BME280;2300;51.874;8.430;2023-02-19T01:28:59;100689.66;;;9.54;100.00
4576;BME280;2300;51.874;8.430;2023-02-19T01:31:26;100690.91;;;9.58;100.00
4576;BME280;2300;51.874;8.430;2023-02-19T01:33:54;100693.50;;;9.53;100.00
4576;BME280;2300;51.874;8.430;2023-02-19T01:36:21;100696.63;;;9.56;100.00
4576;BME280;2300;51.874;8.430;2023-02-19T01:38:48;100694.50;;;9.58;100.00
4576;BME280;2300;51.874;8.430;2023-02-19T01:41:17;100692.81;;;9.57;100.00
4576;BME280;2300;51.874;8.430;2023-02-19T01:43:59;100692.19;;;9.55;100.00
4576;BME280;2300;51.874;8.430;2023-02-19T01:46:27;100683.38;;;9.53;100.00
4576;BME280;2300;51.874;8.430;2023-02-19T01:48:56;100682.28;;;9.54;100.00
4576;BME280;2300;51.874;8.430;2023-02-19T01:51:23;100693.25;;;9.54;100.00
4576;BME280;2300;51.874;8.430;2023-02-19T01:53:53;100684.47;;;9.46;100.00
4576;BME280;2300;51.874;8.430;2023-02-19T01:56:21;100698.47;;;9.63;100.00
4576;BME280;2300;51.874;8.430;2023-02-19T01:58:49;100691.50;;;9.60;100.00
4576;BME280;2300;51.874;8.430;2023-02-19T02:01:17;100687.75;;;9.54;100.00
4576;BME280;2300;51.874;8.430;2023-02-19T02:03:46;100689.00;;;9.58;100.00
4576;BME280;2300;51.874;8.430;2023-02-19T02:06:16;100687.38;;;9.51;100.00
4576;BME280;2300;51.874;8.430;2023-02-19T02:08:46;100688.50;;;9.43;100.00
4576;BME280;2300;51.874;8.430;2023-02-19T02:11:30;100689.91;;;9.52;100.00
4576;BME280;2300;51.874;8.430;2023-02-19T02:13:57;100697.06;;;9.53;100.00
4576;BME280;2300;51.874;8.430;2023-02-19T02:16:29;100686.38;;;9.45;100.00
4576;BME280;2300;51.874;8.430;2023-02-19T02:19:01;100690.34;;;9.49;100.00
4576;BME280;2300;51.874;8.430;2023-02-19T02:21:51;100688.50;;;9.43;100.00
4576;BME280;2300;51.874;8.430;2023-02-19T02:24:40;100681.69;;;9.52;100.00
4576;BME280;2300;51.874;8.430;2023-02-19T02:27:24;100678.00;;;9.40;100.00
4576;BME280;2300;51.874;8.430;2023-02-19T02:30:04;100684.44;;;9.52;100.00
4576;BME280;2300;51.874;8.430;2023-02-19T02:32:38;100671.41;;;9.48;100.00
4576;BME280;2300;51.874;8.430;2023-02-19T02:35:08;100678.09;;;9.52;100.00
4576;BME280;2300;51.874;8.430;2023-02-19T02:37:37;100683.53;;;9.58;100.00
4576;BME280;2300;51.874;8.430;2023-02-19T02:40:07;100684.03;;;9.49;100.00
4576;BME280;2300;51.874;8.430;2023-02-19T02:42:38;100678.53;;;9.49;100.00
4576;BME280;2300;51.874;8.430;2023-02-19T02:45:30;100670.88;;;9.57;100.00
4576;BME280;2300;51.874;8.430;2023-02-19T02:48:22;100682.91;;;9.56;100.00
4576;BME280;2300;51.874;8.430;2023-02-19T02:50:52;100680.22;;;9.50;100.00
4576;BME280;2300;51.874;8.430;2023-02-19T02:53:22;100687.31;;;9.57;100.00
4576;BME280;2300;51.874;8.430;2023-02-19T02:56:09;100685.19;;;9.59;100.00
4576;BME280;2300;51.874;8.430;2023-02-19T02:58:36;100681.84;;;9.57;100.00
4576;BME280;2300;51.874;8.430;2023-02-19T03:01:08;100685.88;;;9.55;100.00
4576;BME280;2300;51.874;8.430;2023-02-19T03:03:56;100684.44;;;9.52;100.00
4576;BME280;2300;51.874;8.430;2023-02-19T03:06:29;100682.75;;;9.51;100.00
4576;BME280;2300;51.874;8.430;2023-02-19T03:09:00;100684.44;;;9.52;100.00
4576;BME280;2300;51.874;8.430;2023-02-19T03:11:33;100675.09;;;9.35;100.00
4576;BME280;2300;51.874;8.430;2023-02-19T03:14:19;100669.63;;;9.35;100.00
4576;BME280;2300;51.874;8.430;2023-02-19T03:17:09;100683.84;;;9.44;100.00
4576;BME280;2300;51.874;8.430;2023-02-19T03:19:57;100690.81;;;9.46;100.00
4576;BME280;2300;51.874;8.430;2023-02-19T03:22:28;100683.63;;;9.45;100.00
4576;BME280;2300;51.874;8.430;2023-02-19T03:24:59;100687.91;;;9.41;100.00
4576;BME280;2300;51.874;8.430;2023-02-19T03:27:45;100682.41;;;9.41;100.00
4576;BME280;2300;51.874;8.430;2023-02-19T03:30:17;100690.13;;;9.51;100.00
4576;BME280;2300;51.874;8.430;2023-02-19T03:32:49;100679.38;;;9.49;100.00
4576;BME280;2300;51.874;8.430;2023-02-19T03:35:20;100684.09;;;9.42;100.00
4576;BME280;2300;51.874;8.430;2023-02-19T03:37:53;100702.44;;;9.42;100.00
4576;BME280;2300;51.874;8.430;2023-02-19T03:40:23;100698.25;;;9.39;100.00
4576;BME280;2300;51.874;8.430;2023-02-19T03:42:57;100710.84;;;9.22;100.00
4576;BME280;2300;51.874;8.430;2023-02-19T03:45:32;100711.81;;;9.28;100.00
4576;BME280;2300;51.874;8.430;2023-02-19T03:48:14;100710.38;;;9.25;100.00
4576;BME280;2300;51.874;8.430;2023-02-19T03:50:45;100720.13;;;9.21;100.00
4576;BME280;2300;51.874;8.430;2023-02-19T03:53:21;100726.09;;;9.11;100.00
4576;BME280;2300;51.874;8.430;2023-02-19T03:55:53;100706.09;;;9.11;100.00
4576;BME280;2300;51.874;8.430;2023-02-19T03:58:28;100713.31;;;8.99;100.00
4576;BME280;2300;51.874;8.430;2023-02-19T04:00:59;100724.00;;;9.07;100.00
4576;BME280;2300;51.874;8.430;2023-02-19T04:03:33;100727.88;;;8.99;100.00
4576;BME280;2300;51.874;8.430;2023-02-19T04:06:03;100729.72;;;9.05;100.00
4576;BME280;2300;51.874;8.430;2023-02-19T04:08:34;100724.84;;;9.07;100.00
4576;BME280;2300;51.874;8.430;2023-02-19T04:11:02;100728.41;;;9.08;100.00
4576;BME280;2300;51.874;8.430;2023-02-19T04:13:32;100732.53;;;8.92;100.00
4576;BME280;2300;51.874;8.430;2023-02-19T04:16:02;100742.22;;;8.95;100.00
4576;BME280;2300;51.874;8.430;2023-02-19T04:18:35;100741.53;;;9.06;100.00
4576;BME280;2300;51.874;8.430;2023-02-19T04:21:04;100749.09;;;9.04;100.00
4576;BME280;2300;51.874;8.430;2023-02-19T04:23:37;100743.25;;;9.00;100.00
4576;BME280;2300;51.874;8.430;2023-02-19T04:26:05;100746.00;;;8.94;100.00
4576;BME280;2300;51.874;8.430;2023-02-19T04:28:33;100738.50;;;8.83;100.00
4576;BME280;2300;51.874;8.430;2023-02-19T04:31:00;100755.97;;;8.82;100.00
4576;BME280;2300;51.874;8.430;2023-02-19T04:33:26;100760.75;;;8.93;100.00
4576;BME280;2300;51.874;8.430;2023-02-19T04:35:54;100771.31;;;8.96;100.00
4576;BME280;2300;51.874;8.430;2023-02-19T04:38:21;100759.91;;;8.92;100.00
4576;BME280;2300;51.874;8.430;2023-02-19T04:40:47;100759.72;;;8.94;100.00
4576;BME280;2300;51.874;8.430;2023-02-19T04:43:15;100769.34;;;9.03;100.00
4576;BME280;2300;51.874;8.430;2023-02-19T04:45:42;100775.44;;;9.05;100.00
4576;BME280;2300;51.874;8.430;2023-02-19T04:48:08;100788.97;;;9.00;100.00
4576;BME280;2300;51.874;8.430;2023-02-19T04:50:36;100792.97;;;8.97;100.00
4576;BME280;2300;51.874;8.430;2023-02-19T04:53:04;100783.31;;;8.95;100.00
4576;BME280;2300;51.874;8.430;2023-02-19T04:55:30;100792.53;;;9.00;100.00
4576;BME280;2300;51.874;8.430;2023-02-19T04:57:57;100796.53;;;9.04;100.00
4576;BME280;2300;51.874;8.430;2023-02-19T05:00:24;100803.44;;;9.07;100.00
4576;BME280;2300;51.874;8.430;2023-02-19T05:02:50;100804.94;;;9.03;100.00
4576;BME280;2300;51.874;8.430;2023-02-19T05:05:16;100815.69;;;9.04;100.00
4576;BME280;2300;51.874;8.430;2023-02-19T05:07:43;100808.31;;;9.05;100.00
4576;BME280;2300;51.874;8.430;2023-02-19T05:10:11;100819.28;;;9.05;100.00
4576;BME280;2300;51.874;8.430;2023-02-19T05:12:37;100823.53;;;9.01;100.00
4576;BME280;2300;51.874;8.430;2023-02-19T05:15:04;100817.41;;;8.99;100.00
4576;BME280;2300;51.874;8.430;2023-02-19T05:17:31;100836.41;;;8.94;100.00
4576;BME280;2300;51.874;8.430;2023-02-19T05:19:58;100830.66;;;9.02;100.00
4576;BME280;2300;51.874;8.430;2023-02-19T05:22:25;100833.19;;;9.03;100.00
4576;BME280;2300;51.874;8.430;2023-02-19T05:24:53;100826.88;;;9.03;100.00
4576;BME280;2300;51.874;8.430;2023-02-19T05:27:21;100827.69;;;9.03;100.00
4576;BME280;2300;51.874;8.430;2023-02-19T05:29:47;100842.88;;;9.06;100.00
4576;BME280;2300;51.874;8.430;2023-02-19T05:32:14;100839.97;;;9.01;100.00
4576;BME280;2300;51.874;8.430;2023-02-19T05:34:40;100829.41;;;8.98;100.00
4576;BME280;2300;51.874;8.430;2023-02-19T05:37:06;100836.13;;;9.02;100.00
4576;BME280;2300;51.874;8.430;2023-02-19T05:39:33;100848.78;;;9.03;100.00
4576;BME280;2300;51.874;8.430;2023-02-19T05:41:59;100853.00;;;8.99;100.00
4576;BME280;2300;51.874;8.430;2023-02-19T05:44:27;100840.06;;;8.75;100.00
4576;BME280;2300;51.874;8.430;2023-02-19T05:46:54;100856.03;;;8.91;100.00
4576;BME280;2300;51.874;8.430;2023-02-19T05:49:20;100858.09;;;8.95;100.00
4576;BME280;2300;51.874;8.430;2023-02-19T05:51:49;100859.59;;;8.91;100.00
4576;BME280;2300;51.874;8.430;2023-02-19T05:54:15;100873.06;;;8.93;100.00
4576;BME280;2300;51.874;8.430;2023-02-19T05:56:42;100876.25;;;8.90;100.00
4576;BME280;2300;51.874;8.430;2023-02-19T05:59:14;100878.16;;;8.83;100.00
4576;BME280;2300;51.874;8.430;2023-02-19T06:01:43;100877.53;;;8.81;100.00
4576;BME280;2300;51.874;8.430;2023-02-19T06:04:10;100884.94;;;8.73;100.00
4576;BME280;2300;51.874;8.430;2023-02-19T06:06:37;100882.19;;;8.73;100.00
4576;BME280;2300;51.874;8.430;2023-02-19T06:09:05;100891.00;;;8.82;100.00
4576;BME280;2300;51.874;8.430;2023-02-19T06:11:32;100902.41;;;8.72;100.00
4576;BME280;2300;51.874;8.430;2023-02-19T06:13:58;100904.94;;;8.81;100.00
4576;BME280;2300;51.874;8.430;2023-02-19T06:16:25;100904.13;;;8.67;100.00
4576;BME280;2300;51.874;8.430;2023-02-19T06:18:53;100909.59;;;8.67;100.00
4576;BME280;2300;51.874;8.430;2023-02-19T06:21:19;100905.78;;;8.75;100.00
4576;BME280;2300;51.874;8.430;2023-02-19T06:23:46;100908.34;;;8.69;100.00
4576;BME280;2300;51.874;8.430;2023-02-19T06:26:14;100903.88;;;8.55;100.00
4576;BME280;2300;51.874;8.430;2023-02-19T06:28:42;100918.84;;;8.66;100.00
4576;BME280;2300;51.874;8.430;2023-02-19T06:31:10;100917.81;;;8.67;100.00
4576;BME280;2300;51.874;8.430;2023-02-19T06:33:38;100928.94;;;8.79;100.00
4576;BME280;2300;51.874;8.430;2023-02-19T06:36:09;100934.66;;;8.70;100.00
4576;BME280;2300;51.874;8.430;2023-02-19T06:38:36;100925.56;;;8.63;100.00
4576;BME280;2300;51.874;8.430;2023-02-19T06:41:04;100935.28;;;8.66;100.00
4576;BME280;2300;51.874;8.430;2023-02-19T06:43:32;100943.50;;;8.66;100.00
4576;BME280;2300;51.874;8.430;2023-02-19T06:45:59;100940.34;;;8.76;100.00
4576;BME280;2300;51.874;8.430;2023-02-19T06:48:25;100951.69;;;8.72;100.00
4576;BME280;2300;51.874;8.430;2023-02-19T06:50:52;100950.66;;;8.73;100.00
4576;BME280;2300;51.874;8.430;2023-02-19T06:53:20;100957.19;;;8.66;100.00
4576;BME280;2300;51.874;8.430;2023-02-19T06:55:54;100960.34;;;8.69;100.00
4576;BME280;2300;51.874;8.430;2023-02-19T06:58:21;100962.84;;;8.78;100.00
4576;BME280;2300;51.874;8.430;2023-02-19T07:00:47;100969.56;;;8.82;100.00
4576;BME280;2300;51.874;8.430;2023-02-19T07:03:13;100975.28;;;8.73;100.00
4576;BME280;2300;51.874;8.430;2023-02-19T07:05:40;100984.09;;;8.82;100.00
4576;BME280;2300;51.874;8.430;2023-02-19T07:08:08;100984.16;;;8.76;100.00
4576;BME280;2300;51.874;8.430;2023-02-19T07:10:35;100984.56;;;8.79;100.00
4576;BME280;2300;51.874;8.430;2023-02-19T07:13:02;100994.41;;;8.87;100.00
4576;BME280;2300;51.874;8.430;2023-02-19T07:15:30;100995.69;;;8.91;100.00
4576;BME280;2300;51.874;8.430;2023-02-19T07:17:57;101004.31;;;8.94;100.00
4576;BME280;2300;51.874;8.430;2023-02-19T07:20:24;101012.53;;;8.94;100.00
4576;BME280;2300;51.874;8.430;2023-02-19T07:22:50;101014.22;;;8.82;100.00
4576;BME280;2300;51.874;8.430;2023-02-19T07:25:17;101017.00;;;8.76;100.00
4576;BME280;2300;51.874;8.430;2023-02-19T07:27:44;101010.69;;;8.68;100.00
4576;BME280;2300;51.874;8.430;2023-02-19T07:30:11;101035.28;;;8.82;100.00
4576;BME280;2300;51.874;8.430;2023-02-19T07:32:39;101039.31;;;8.79;100.00
4576;BME280;2300;51.874;8.430;2023-02-19T07:35:06;101078.28;;;8.88;100.00
4576;BME280;2300;51.874;8.430;2023-02-19T07:37:33;101085.13;;;8.11;100.00
4576;BME280;2300;51.874;8.430;2023-02-19T07:39:59;101093.00;;;7.73;99.77
4576;BME280;2300;51.874;8.430;2023-02-19T07:42:26;101101.22;;;7.32;100.00
4576;BME280;2300;51.874;8.430;2023-02-19T07:44:54;101103.16;;;7.04;100.00
4576;BME280;2300;51.874;8.430;2023-02-19T07:47:20;101116.34;;;6.79;100.00
4576;BME280;2300;51.874;8.430;2023-02-19T07:49:46;101120.75;;;6.52;100.00
4576;BME280;2300;51.874;8.430;2023-02-19T07:52:13;101120.16;;;6.57;100.00
4576;BME280;2300;51.874;8.430;2023-02-19T07:54:39;101134.97;;;6.48;100.00
4576;BME280;2300;51.874;8.430;2023-02-19T07:57:06;101135.09;;;6.61;100.00
4576;BME280;2300;51.874;8.430;2023-02-19T07:59:33;101130.81;;;6.52;100.00
4576;BME280;2300;51.874;8.430;2023-02-19T08:02:01;101146.19;;;6.59;100.00
4576;BME280;2300;51.874;8.430;2023-02-19T08:04:45;101147.56;;;6.49;100.00
4576;BME280;2300;51.874;8.430;2023-02-19T08:07:12;101141.84;;;6.44;100.00
4576;BME280;2300;51.874;8.430;2023-02-19T08:09:39;101139.06;;;6.37;100.00
4576;BME280;2300;51.874;8.430;2023-02-19T08:12:07;101143.28;;;6.40;100.00
4576;BME280;2300;51.874;8.430;2023-02-19T08:14:52;101154.34;;;6.53;100.00
4576;BME280;2300;51.874;8.430;2023-02-19T08:17:19;101155.31;;;6.67;100.00
4576;BME280;2300;51.874;8.430;2023-02-19T08:19:46;101158.56;;;6.55;100.00
4576;BME280;2300;51.874;8.430;2023-02-19T08:22:12;101171.63;;;6.60;100.00
4576;BME280;2300;51.874;8.430;2023-02-19T08:24:40;101179.03;;;6.66;100.00
4576;BME280;2300;51.874;8.430;2023-02-19T08:27:07;101172.97;;;6.71;100.00
4576;BME280;2300;51.874;8.430;2023-02-19T08:29:33;101178.34;;;6.64;100.00
4576;BME280;2300;51.874;8.430;2023-02-19T08:31:59;101177.16;;;6.67;100.00
4576;BME280;2300;51.874;8.430;2023-02-19T08:34:27;101185.97;;;6.90;100.00
4576;BME280;2300;51.874;8.430;2023-02-19T08:36:54;101188.00;;;7.02;99.70
4576;BME280;2300;51.874;8.430;2023-02-19T08:39:20;101190.13;;;7.07;99.40
4576;BME280;2300;51.874;8.430;2023-02-19T08:41:47;101195.16;;;7.03;99.58
4576;BME280;2300;51.874;8.430;2023-02-19T08:44:13;101180.84;;;7.01;100.00
4576;BME280;2300;51.874;8.430;2023-02-19T08:46:40;101203.59;;;7.09;99.16
4576;BME280;2300;51.874;8.430;2023-02-19T08:49:06;101208.69;;;6.90;98.17
4576;BME280;2300;51.874;8.430;2023-02-19T08:51:34;101207.03;;;6.75;98.52
4576;BME280;2300;51.874;8.430;2023-02-19T08:54:01;101212.66;;;6.88;98.36
4576;BME280;2300;51.874;8.430;2023-02-19T08:56:28;101226.50;;;6.86;98.48
4576;BME280;2300;51.874;8.430;2023-02-19T08:58:54;101220.00;;;6.87;98.67
4576;BME280;2300;51.874;8.430;2023-02-19T09:01:21;101222.47;;;6.82;98.50
4576;BME280;2300;51.874;8.430;2023-02-19T09:03:48;101238.44;;;6.85;98.77
4576;BME280;2300;51.874;8.430;2023-02-19T09:06:17;101246.63;;;6.85;100.00
4576;BME280;2300;51.874;8.430;2023-02-19T09:08:45;101248.94;;;6.82;100.00
4576;BME280;2300;51.874;8.430;2023-02-19T09:11:12;101253.63;;;6.88;100.00
4576;BME280;2300;51.874;8.430;2023-02-19T09:13:38;101248.25;;;6.80;100.00
4576;BME280;2300;51.874;8.430;2023-02-19T09:16:05;101257.56;;;6.85;100.00
4576;BME280;2300;51.874;8.430;2023-02-19T09:18:31;101264.31;;;6.89;100.00
4576;BME280;2300;51.874;8.430;2023-02-19T09:20:59;101255.16;;;6.97;100.00
4576;BME280;2300;51.874;8.430;2023-02-19T09:23:25;101269.16;;;6.87;100.00
4576;BME280;2300;51.874;8.430;2023-02-19T09:25:57;101272.72;;;6.88;100.00
4576;BME280;2300;51.874;8.430;2023-02-19T09:28:25;101280.69;;;7.11;100.00
4576;BME280;2300;51.874;8.430;2023-02-19T09:30:51;101281.88;;;7.23;100.00
4576;BME280;2300;51.874;8.430;2023-02-19T09:33:17;101285.91;;;7.06;100.00
4576;BME280;2300;51.874;8.430;2023-02-19T09:35:44;101300.63;;;7.05;100.00
4576;BME280;2300;51.874;8.430;2023-02-19T09:38:10;101295.41;;;6.88;99.83
4576;BME280;2300;51.874;8.430;2023-02-19T09:40:37;101303.59;;;6.88;99.53
4576;BME280;2300;51.874;8.430;2023-02-19T09:43:07;101298.72;;;7.05;100.00
4576;BME280;2300;51.874;8.430;2023-02-19T09:45:38;101312.88;;;7.36;100.00
4576;BME280;2300;51.874;8.430;2023-02-19T09:48:05;101321.09;;;7.36;99.49
4576;BME280;2300;51.874;8.430;2023-02-19T09:50:37;101323.28;;;7.48;99.83
4576;BME280;2300;51.874;8.430;2023-02-19T09:53:11;101322.41;;;7.40;97.86
4576;BME280;2300;51.874;8.430;2023-02-19T09:55:38;101323.19;;;7.34;96.95
4576;BME280;2300;51.874;8.430;2023-02-19T09:58:20;101334.63;;;7.44;98.38
4576;BME280;2300;51.874;8.430;2023-02-19T10:00:49;101351.09;;;7.30;97.63
4576;BME280;2300;51.874;8.430;2023-02-19T10:03:21;101367.75;;;7.14;97.10
4576;BME280;2300;51.874;8.430;2023-02-19T10:05:49;101354.91;;;6.78;97.19
4576;BME280;2300;51.874;8.430;2023-02-19T10:08:18;101381.84;;;6.81;97.02
4576;BME280;2300;51.874;8.430;2023-02-19T10:10:45;101384.94;;;6.63;97.18
4576;BME280;2300;51.874;8.430;2023-02-19T10:13:18;101389.47;;;6.71;97.69
4576;BME280;2300;51.874;8.430;2023-02-19T10:15:47;101396.44;;;6.74;96.70
4576;BME280;2300;51.874;8.430;2023-02-19T10:18:18;101400.94;;;6.67;96.98
4576;BME280;2300;51.874;8.430;2023-02-19T10:20:46;101412.91;;;6.80;98.02
4576;BME280;2300;51.874;8.430;2023-02-19T10:23:14;101418.28;;;6.88;97.76
4576;BME280;2300;51.874;8.430;2023-02-19T10:25:44;101423.00;;;7.16;97.10
4576;BME280;2300;51.874;8.430;2023-02-19T10:28:16;101425.38;;;7.19;95.70
4576;BME280;2300;51.874;8.430;2023-02-19T10:30:43;101421.97;;;7.17;95.10
4576;BME280;2300;51.874;8.430;2023-02-19T10:33:12;101418.22;;;7.39;95.08
4576;BME280;2300;51.874;8.430;2023-02-19T10:35:51;101437.22;;;7.68;94.08
4576;BME280;2300;51.874;8.430;2023-02-19T10:38:19;101438.91;;;7.48;92.62
4576;BME280;2300;51.874;8.430;2023-02-19T10:40:48;101368.78;;;7.13;91.94
4576;BME280;2300;51.874;8.430;2023-02-19T10:43:22;101460.72;;;7.84;92.74
4576;BME280;2300;51.874;8.430;2023-02-19T10:45:56;101458.47;;;7.87;91.32
4576;BME280;2300;51.874;8.430;2023-02-19T10:48:27;101455.25;;;8.05;89.92
4576;BME280;2300;51.874;8.430;2023-02-19T10:50:57;101454.19;;;8.06;90.25
4576;BME280;2300;51.874;8.430;2023-02-19T10:53:39;101440.47;;;8.27;89.17
4576;BME280;2300;51.874;8.430;2023-02-19T10:56:07;101435.25;;;8.05;87.54
4576;BME280;2300;51.874;8.430;2023-02-19T10:58:36;101448.25;;;8.24;87.46
4576;BME280;2300;51.874;8.430;2023-02-19T11:01:16;101449.66;;;8.20;88.36
4576;BME280;2300;51.874;8.430;2023-02-19T11:03:44;101456.34;;;8.39;88.77
4576;BME280;2300;51.874;8.430;2023-02-19T11:06:12;101463.31;;;8.41;86.34
4576;BME280;2300;51.874;8.430;2023-02-19T11:08:49;101463.44;;;8.05;83.79
4576;BME280;2300;51.874;8.430;2023-02-19T11:11:22;101474.97;;;8.01;84.20
4576;BME280;2300;51.874;8.430;2023-02-19T11:13:52;101461.66;;;8.19;85.60
4576;BME280;2300;51.874;8.430;2023-02-19T11:16:19;101467.34;;;8.17;85.50
4576;BME280;2300;51.874;8.430;2023-02-19T11:18:52;101478.94;;;7.98;83.48
4576;BME280;2300;51.874;8.430;2023-02-19T11:21:24;101483.28;;;8.14;83.67
4576;BME280;2300;51.874;8.430;2023-02-19T11:23:53;101487.63;;;8.02;83.94
4576;BME280;2300;51.874;8.430;2023-02-19T11:26:23;101490.28;;;7.95;85.41
4576;BME280;2300;51.874;8.430;2023-02-19T11:28:56;101501.41;;;7.94;84.82
4576;BME280;2300;51.874;8.430;2023-02-19T11:31:24;101485.91;;;8.22;85.61
4576;BME280;2300;51.874;8.430;2023-02-19T11:33:56;101487.13;;;8.19;85.51
4576;BME280;2300;51.874;8.430;2023-02-19T11:36:28;101474.38;;;8.05;84.48
4576;BME280;2300;51.874;8.430;2023-02-19T11:38:58;101471.81;;;8.25;83.20
4576;BME280;2300;51.874;8.430;2023-02-19T11:41:37;101472.41;;;8.20;82.46
4576;BME280;2300;51.874;8.430;2023-02-19T11:44:22;101463.59;;;8.25;83.14
4576;BME280;2300;51.874;8.430;2023-02-19T11:47:04;101458.63;;;8.35;81.30
4576;BME280;2300;51.874;8.430;2023-02-19T11:49:41;101472.97;;;8.37;81.72
4576;BME280;2300;51.874;8.430;2023-02-19T11:52:21;101454.09;;;8.21;82.77
4576;BME280;2300;51.874;8.430;2023-02-19T11:54:54;101482.72;;;8.46;83.04
4576;BME280;2300;51.874;8.430;2023-02-19T11:57:37;101472.28;;;8.91;83.70
4576;BME280;2300;51.874;8.430;2023-02-19T12:00:34;101466.44;;;9.07;81.81
4576;BME280;2300;51.874;8.430;2023-02-19T12:03:19;101465.47;;;9.21;80.29
4576;BME280;2300;51.874;8.430;2023-02-19T12:05:59;101469.50;;;9.38;79.32
4576;BME280;2300;51.874;8.430;2023-02-19T12:08:47;101468.00;;;9.29;78.48
4576;BME280;2300;51.874;8.430;2023-02-19T12:11:31;101465.41;;;9.08;76.79
4576;BME280;2300;51.874;8.430;2023-02-19T12:14:23;101455.63;;;8.86;78.20
4576;BME280;2300;51.874;8.430;2023-02-19T12:17:01;101450.47;;;8.69;79.72
4576;BME280;2300;51.874;8.430;2023-02-19T12:19:43;101466.22;;;9.02;77.66
4576;BME280;2300;51.874;8.430;2023-02-19T12:22:26;101467.78;;;9.24;77.82
4576;BME280;2300;51.874;8.430;2023-02-19T12:25:05;101469.41;;;9.05;77.37
4576;BME280;2300;51.874;8.430;2023-02-19T12:27:48;101473.81;;;9.00;76.98
4576;BME280;2300;51.874;8.430;2023-02-19T12:30:32;101469.56;;;8.91;78.81
4576;BME280;2300;51.874;8.430;2023-02-19T12:36:04;101478.47;;;9.12;75.87
4576;BME280;2300;51.874;8.430;2023-02-19T12:38:40;101486.47;;;9.07;74.31
4576;BME280;2300;51.874;8.430;2023-02-19T12:41:25;101488.34;;;9.00;76.19
4576;BME280;2300;51.874;8.430;2023-02-19T12:43:58;101486.88;;;9.04;74.67
4576;BME280;2300;51.874;8.430;2023-02-19T12:46:30;101494.41;;;8.89;76.01
4576;BME280;2300;51.874;8.430;2023-02-19T12:49:04;101491.28;;;8.99;75.53
4576;BME280;2300;51.874;8.430;2023-02-19T12:51:39;101496.63;;;9.13;75.67
4576;BME280;2300;51.874;8.430;2023-02-19T12:54:12;101497.66;;;9.12;76.25
4576;BME280;2300;51.874;8.430;2023-02-19T12:56:43;101511.44;;;9.26;77.06
4576;BME280;2300;51.874;8.430;2023-02-19T12:59:16;101511.25;;;9.27;75.50
4576;BME280;2300;51.874;8.430;2023-02-19T13:01:49;101518.72;;;9.53;75.28
4576;BME280;2300;51.874;8.430;2023-02-19T13:04:28;101515.94;;;9.46;74.81
4576;BME280;2300;51.874;8.430;2023-02-19T13:07:00;101522.13;;;9.62;74.98
4576;BME280;2300;51.874;8.430;2023-02-19T13:09:32;101524.28;;;9.86;74.17
4576;BME280;2300;51.874;8.430;2023-02-19T13:12:05;101519.66;;;9.86;73.42
4576;BME280;2300;51.874;8.430;2023-02-19T13:14:35;101517.50;;;9.69;74.83
4576;BME280;2300;51.874;8.430;2023-02-19T13:17:18;101526.41;;;9.97;74.16
4576;BME280;2300;51.874;8.430;2023-02-19T13:19:50;101522.59;;;9.85;75.22
4576;BME280;2300;51.874;8.430;2023-02-19T13:22:26;101519.25;;;10.22;73.16
4576;BME280;2300;51.874;8.430;2023-02-19T13:25:14;101518.25;;;10.23;71.47
4576;BME280;2300;51.874;8.430;2023-02-19T13:27:56;101514.03;;;10.27;71.41
4576;BME280;2300;51.874;8.430;2023-02-19T13:30:36;101504.50;;;10.10;72.41
4576;BME280;2300;51.874;8.430;2023-02-19T13:33:19;101510.00;;;10.36;73.12
4576;BME280;2300;51.874;8.430;2023-02-19T13:36:09;101517.63;;;10.41;70.27